sensor_id;sensor_type;location;lat;lon;timestamp;temperature;humidity
41944;DHT22;27636;52.610;13.244;2022-12-18T00:04:58;-4.20;99.90
41944;DHT22;27636;52.610;13.244;2022-12-18T00:10:02;-4.20;99.90
41944;DHT22;27636;52.610;13.244;2022-12-18T00:15:08;-4.40;99.90
41944;DHT22;27636;52.610;13.244;2022-12-18T00:20:11;-4.40;99.90
41944;DHT22;27636;52.610;13.244;2022-12-18T00:25:15;-4.50;99.90
41944;DHT22;27636;52.610;13.244;2022-12-18T00:30:19;-4.50;99.90
41944;DHT22;27636;52.610;13.244;2022-12-18T00:35:22;-4.50;99.90
41944;DHT22;27636;52.610;13.244;2022-12-18T00:40:26;-4.40;99.90
41944;DHT22;27636;52.610;13.244;2022-12-18T00:45:30;-4.50;99.90
41944;DHT22;27636;52.610;13.244;2022-12-18T00:50:34;-4.60;99.90
41944;DHT22;27636;52.610;13.244;2022-12-18T00:55:37;-4.60;99.90
41944;DHT22;27636;52.610;13.244;2022-12-18T01:00:43;-4.70;99.90
41944;DHT22;27636;52.610;13.244;2022-12-18T01:05:46;-4.70;99.90
41944;DHT22;27636;52.610;13.244;2022-12-18T01:10:50;-4.70;99.90
41944;DHT22;27636;52.610;13.244;2022-12-18T01:15:55;-4.80;99.90
41944;DHT22;27636;52.610;13.244;2022-12-18T01:20:58;-4.70;99.90
41944;DHT22;27636;52.610;13.244;2022-12-18T01:26:05;-4.60;99.90
41944;DHT22;27636;52.610;13.244;2022-12-18T01:31:15;-4.40;99.90
41944;DHT22;27636;52.610;13.244;2022-12-18T01:36:21;-4.60;99.90
41944;DHT22;27636;52.610;13.244;2022-12-18T01:41:28;-4.60;99.90
41944;DHT22;27636;52.610;13.244;2022-12-18T01:46:55;-4.80;99.90
41944;DHT22;27636;52.610;13.244;2022-12-18T01:51:58;-4.80;99.90
41944;DHT22;27636;52.610;13.244;2022-12-18T01:57:02;-4.60;99.90
41944;DHT22;27636;52.610;13.244;2022-12-18T02:02:07;-4.70;99.90
41944;DHT22;27636;52.610;13.244;2022-12-18T02:07:17;-4.70;99.90
41944;DHT22;27636;52.610;13.244;2022-12-18T02:12:30;-4.70;99.90
41944;DHT22;27636;52.610;13.244;2022-12-18T02:17:43;-4.80;99.90
41944;DHT22;27636;52.610;13.244;2022-12-18T02:23:00;-4.90;99.90
41944;DHT22;27636;52.610;13.244;2022-12-18T02:28:08;-4.80;99.90
41944;DHT22;27636;52.610;13.244;2022-12-18T02:33:13;-4.80;99.90
41944;DHT22;27636;52.610;13.244;2022-12-18T02:38:19;-4.80;99.90
41944;DHT22;27636;52.610;13.244;2022-12-18T02:43:27;-4.80;99.90
41944;DHT22;27636;52.610;13.244;2022-12-18T02:48:35;-4.80;99.90
41944;DHT22;27636;52.610;13.244;2022-12-18T02:53:43;-4.70;99.90
41944;DHT22;27636;52.610;13.244;2022-12-18T02:58:56;-4.80;99.90
41944;DHT22;27636;52.610;13.244;2022-12-18T03:04:12;-4.90;99.90
41944;DHT22;27636;52.610;13.244;2022-12-18T03:09:20;-4.90;99.90
41944;DHT22;27636;52.610;13.244;2022-12-18T03:14:27;-4.90;99.90
41944;DHT22;27636;52.610;13.244;2022-12-18T03:19:33;-5.00;99.90
41944;DHT22;27636;52.610;13.244;2022-12-18T03:24:39;-4.90;99.90
41944;DHT22;27636;52.610;13.244;2022-12-18T03:29:45;-4.90;99.90
41944;DHT22;27636;52.610;13.244;2022-12-18T03:34:53;-4.90;99.90
41944;DHT22;27636;52.610;13.244;2022-12-18T03:39:59;-4.90;99.90
41944;DHT22;27636;52.610;13.244;2022-12-18T03:45:09;-4.90;99.90
41944;DHT22;27636;52.610;13.244;2022-12-18T03:50:17;-5.00;99.90
41944;DHT22;27636;52.610;13.244;2022-12-18T03:55:27;-5.10;99.90
41944;DHT22;27636;52.610;13.244;2022-12-18T04:00:38;-5.10;99.90
41944;DHT22;27636;52.610;13.244;2022-12-18T04:05:45;-5.10;99.90
41944;DHT22;27636;52.610;13.244;2022-12-18T04:10:50;-5.10;99.90
41944;DHT22;27636;52.610;13.244;2022-12-18T04:15:55;-5.00;99.90
41944;DHT22;27636;52.610;13.244;2022-12-18T04:21:00;-5.10;99.90
41944;DHT22;27636;52.610;13.244;2022-12-18T04:26:04;-5.10;99.90
41944;DHT22;27636;52.610;13.244;2022-12-18T04:31:31;-5.10;99.90
41944;DHT22;27636;52.610;13.244;2022-12-18T04:36:35;-5.00;99.90
41944;DHT22;27636;52.610;13.244;2022-12-18T04:41:39;-5.00;99.90
41944;DHT22;27636;52.610;13.244;2022-12-18T04:46:44;-5.00;99.90
41944;DHT22;27636;52.610;13.244;2022-12-18T04:51:47;-5.10;99.90
41944;DHT22;27636;52.610;13.244;2022-12-18T04:56:51;-5.10;99.90
41944;DHT22;27636;52.610;13.244;2022-12-18T05:01:56;-5.10;99.90
41944;DHT22;27636;52.610;13.244;2022-12-18T05:06:59;-5.20;99.90
41944;DHT22;27636;52.610;13.244;2022-12-18T05:12:03;-5.20;99.90
41944;DHT22;27636;52.610;13.244;2022-12-18T05:17:07;-5.20;99.90
41944;DHT22;27636;52.610;13.244;2022-12-18T05:22:11;-5.00;99.90
41944;DHT22;27636;52.610;13.244;2022-12-18T05:27:14;-5.20;99.90
41944;DHT22;27636;52.610;13.244;2022-12-18T05:32:19;-5.30;99.90
41944;DHT22;27636;52.610;13.244;2022-12-18T05:37:22;-5.30;99.90
41944;DHT22;27636;52.610;13.244;2022-12-18T05:42:25;-5.20;99.90
41944;DHT22;27636;52.610;13.244;2022-12-18T05:47:30;-5.20;99.90
41944;DHT22;27636;52.610;13.244;2022-12-18T05:52:33;-5.20;99.90
41944;DHT22;27636;52.610;13.244;2022-12-18T05:57:36;-5.30;99.90
41944;DHT22;27636;52.610;13.244;2022-12-18T06:02:41;-5.20;99.90
41944;DHT22;27636;52.610;13.244;2022-12-18T06:07:44;-5.30;99.90
41944;DHT22;27636;52.610;13.244;2022-12-18T06:12:48;-5.30;99.90
41944;DHT22;27636;52.610;13.244;2022-12-18T06:17:52;-5.30;99.90
41944;DHT22;27636;52.610;13.244;2022-12-18T06:22:55;-5.30;99.90
41944;DHT22;27636;52.610;13.244;2022-12-18T06:27:59;-5.20;99.90
41944;DHT22;27636;52.610;13.244;2022-12-18T06:33:03;-5.20;99.90
41944;DHT22;27636;52.610;13.244;2022-12-18T06:38:07;-5.20;99.90
41944;DHT22;27636;52.610;13.244;2022-12-18T06:43:10;-5.10;99.90
41944;DHT22;27636;52.610;13.244;2022-12-18T06:48:14;-5.10;99.90
41944;DHT22;27636;52.610;13.244;2022-12-18T06:53:18;-5.20;99.90
41944;DHT22;27636;52.610;13.244;2022-12-18T06:58:21;-5.20;99.90
41944;DHT22;27636;52.610;13.244;2022-12-18T07:03:25;-5.20;99.90
41944;DHT22;27636;52.610;13.244;2022-12-18T07:08:30;-5.30;99.90
41944;DHT22;27636;52.610;13.244;2022-12-18T07:13:33;-5.20;99.90
41944;DHT22;27636;52.610;13.244;2022-12-18T07:18:38;-5.20;99.90
41944;DHT22;27636;52.610;13.244;2022-12-18T07:23:41;-5.20;99.90
41944;DHT22;27636;52.610;13.244;2022-12-18T07:28:45;-5.20;99.90
41944;DHT22;27636;52.610;13.244;2022-12-18T07:33:50;-5.20;99.90
41944;DHT22;27636;52.610;13.244;2022-12-18T07:38:53;-5.20;99.90
41944;DHT22;27636;52.610;13.244;2022-12-18T07:43:57;-5.10;99.90
41944;DHT22;27636;52.610;13.244;2022-12-18T07:49:01;-5.10;99.90
41944;DHT22;27636;52.610;13.244;2022-12-18T07:54:04;-5.20;99.90
41944;DHT22;27636;52.610;13.244;2022-12-18T07:59:08;-5.10;99.90
41944;DHT22;27636;52.610;13.244;2022-12-18T08:04:12;-5.10;99.90
41944;DHT22;27636;52.610;13.244;2022-12-18T08:09:15;-5.10;99.90
41944;DHT22;27636;52.610;13.244;2022-12-18T08:14:18;-5.00;99.90
41944;DHT22;27636;52.610;13.244;2022-12-18T08:19:23;-5.00;99.90
41944;DHT22;27636;52.610;13.244;2022-12-18T08:24:26;-4.90;99.90
41944;DHT22;27636;52.610;13.244;2022-12-18T08:29:29;-5.00;99.90
41944;DHT22;27636;52.610;13.244;2022-12-18T08:34:35;-4.90;99.90
41944;DHT22;27636;52.610;13.244;2022-12-18T08:39:38;-4.80;99.90
41944;DHT22;27636;52.610;13.244;2022-12-18T08:44:41;-4.80;99.90
41944;DHT22;27636;52.610;13.244;2022-12-18T08:49:45;-4.70;99.90
41944;DHT22;27636;52.610;13.244;2022-12-18T08:54:49;-4.60;99.90
41944;DHT22;27636;52.610;13.244;2022-12-18T08:59:52;-4.60;99.90
41944;DHT22;27636;52.610;13.244;2022-12-18T09:04:57;-4.40;99.90
41944;DHT22;27636;52.610;13.244;2022-12-18T09:10:00;-4.30;99.90
41944;DHT22;27636;52.610;13.244;2022-12-18T09:15:04;-4.20;99.90
41944;DHT22;27636;52.610;13.244;2022-12-18T09:20:10;-4.00;99.90
41944;DHT22;27636;52.610;13.244;2022-12-18T09:25:13;-3.90;99.90
41944;DHT22;27636;52.610;13.244;2022-12-18T09:30:17;-3.80;99.90
41944;DHT22;27636;52.610;13.244;2022-12-18T09:35:22;-3.70;99.90
41944;DHT22;27636;52.610;13.244;2022-12-18T09:40:36;-3.80;99.90
41944;DHT22;27636;52.610;13.244;2022-12-18T09:45:44;-4.00;99.90
41944;DHT22;27636;52.610;13.244;2022-12-18T09:50:51;-3.90;99.90
41944;DHT22;27636;52.610;13.244;2022-12-18T09:55:58;-3.80;99.90
41944;DHT22;27636;52.610;13.244;2022-12-18T10:01:10;-3.90;99.90
41944;DHT22;27636;52.610;13.244;2022-12-18T10:06:19;-3.80;99.90
41944;DHT22;27636;52.610;13.244;2022-12-18T10:11:38;-3.50;99.90
41944;DHT22;27636;52.610;13.244;2022-12-18T10:16:51;-3.90;99.90
41944;DHT22;27636;52.610;13.244;2022-12-18T10:22:03;-3.70;99.90
41944;DHT22;27636;52.610;13.244;2022-12-18T10:27:15;-3.60;99.90
41944;DHT22;27636;52.610;13.244;2022-12-18T10:32:23;-3.60;99.90
41944;DHT22;27636;52.610;13.244;2022-12-18T10:37:29;-3.40;99.90
41944;DHT22;27636;52.610;13.244;2022-12-18T10:42:37;-3.30;99.90
41944;DHT22;27636;52.610;13.244;2022-12-18T10:47:46;-3.10;99.90
41944;DHT22;27636;52.610;13.244;2022-12-18T10:52:58;-3.30;99.90
41944;DHT22;27636;52.610;13.244;2022-12-18T10:58:19;-3.10;99.90
41944;DHT22;27636;52.610;13.244;2022-12-18T11:03:32;-3.30;99.90
41944;DHT22;27636;52.610;13.244;2022-12-18T11:08:38;-3.50;99.90
41944;DHT22;27636;52.610;13.244;2022-12-18T11:13:57;-3.40;99.90
41944;DHT22;27636;52.610;13.244;2022-12-18T11:19:18;-3.00;99.90
41944;DHT22;27636;52.610;13.244;2022-12-18T11:24:27;-2.90;99.90
41944;DHT22;27636;52.610;13.244;2022-12-18T11:29:33;-2.90;99.90
41944;DHT22;27636;52.610;13.244;2022-12-18T11:34:37;-2.90;99.90
41944;DHT22;27636;52.610;13.244;2022-12-18T11:39:46;-2.80;99.90
41944;DHT22;27636;52.610;13.244;2022-12-18T11:44:55;-2.70;99.90
41944;DHT22;27636;52.610;13.244;2022-12-18T11:50:03;-2.80;99.90
41944;DHT22;27636;52.610;13.244;2022-12-18T11:55:16;-2.80;99.90
41944;DHT22;27636;52.610;13.244;2022-12-18T12:00:24;-2.60;99.90
41944;DHT22;27636;52.610;13.244;2022-12-18T12:05:34;-2.50;99.90
41944;DHT22;27636;52.610;13.244;2022-12-18T12:10:52;-2.60;99.90
41944;DHT22;27636;52.610;13.244;2022-12-18T12:16:06;-2.50;99.90
41944;DHT22;27636;52.610;13.244;2022-12-18T12:21:18;-2.70;99.90
41944;DHT22;27636;52.610;13.244;2022-12-18T12:26:29;-2.60;99.90
41944;DHT22;27636;52.610;13.244;2022-12-18T12:31:54;-2.50;99.90
41944;DHT22;27636;52.610;13.244;2022-12-18T12:37:15;-2.50;99.90
41944;DHT22;27636;52.610;13.244;2022-12-18T12:42:30;-2.50;99.90
41944;DHT22;27636;52.610;13.244;2022-12-18T12:47:54;-2.70;99.90
41944;DHT22;27636;52.610;13.244;2022-12-18T12:53:01;-2.70;99.90
41944;DHT22;27636;52.610;13.244;2022-12-18T12:58:16;-2.70;99.90
41944;DHT22;27636;52.610;13.244;2022-12-18T13:03:29;-2.80;99.90
41944;DHT22;27636;52.610;13.244;2022-12-18T13:08:53;-2.80;99.90
41944;DHT22;27636;52.610;13.244;2022-12-18T13:14:00;-3.00;99.90
41944;DHT22;27636;52.610;13.244;2022-12-18T13:19:18;-2.90;99.90
41944;DHT22;27636;52.610;13.244;2022-12-18T13:24:26;-2.90;99.90
41944;DHT22;27636;52.610;13.244;2022-12-18T13:29:42;-2.90;99.90
41944;DHT22;27636;52.610;13.244;2022-12-18T13:34:46;-2.80;99.90
41944;DHT22;27636;52.610;13.244;2022-12-18T13:39:49;-2.80;99.90
41944;DHT22;27636;52.610;13.244;2022-12-18T13:44:54;-2.80;99.90
41944;DHT22;27636;52.610;13.244;2022-12-18T13:49:57;-2.90;99.90
41944;DHT22;27636;52.610;13.244;2022-12-18T13:55:04;-3.00;99.90
41944;DHT22;27636;52.610;13.244;2022-12-18T14:00:24;-3.10;99.90
41944;DHT22;27636;52.610;13.244;2022-12-18T14:05:31;-2.90;99.90
41944;DHT22;27636;52.610;13.244;2022-12-18T14:10:35;-3.00;99.90
41944;DHT22;27636;52.610;13.244;2022-12-18T14:15:53;-3.10;99.90
41944;DHT22;27636;52.610;13.244;2022-12-18T14:20:59;-3.00;99.90
41944;DHT22;27636;52.610;13.244;2022-12-18T14:26:19;-3.00;99.90
41944;DHT22;27636;52.610;13.244;2022-12-18T14:31:25;-3.00;99.90
41944;DHT22;27636;52.610;13.244;2022-12-18T14:36:29;-3.10;99.90
41944;DHT22;27636;52.610;13.244;2022-12-18T14:41:32;-3.10;99.90
41944;DHT22;27636;52.610;13.244;2022-12-18T14:46:39;-3.00;99.90
41944;DHT22;27636;52.610;13.244;2022-12-18T14:51:48;-3.30;99.90
41944;DHT22;27636;52.610;13.244;2022-12-18T14:56:58;-3.20;99.90
41944;DHT22;27636;52.610;13.244;2022-12-18T15:02:10;-3.20;99.90
41944;DHT22;27636;52.610;13.244;2022-12-18T15:07:20;-3.20;99.90
41944;DHT22;27636;52.610;13.244;2022-12-18T15:12:28;-3.30;99.90
41944;DHT22;27636;52.610;13.244;2022-12-18T15:17:38;-3.40;99.90
41944;DHT22;27636;52.610;13.244;2022-12-18T15:22:50;-3.30;99.90
41944;DHT22;27636;52.610;13.244;2022-12-18T15:27:53;-3.30;99.90
41944;DHT22;27636;52.610;13.244;2022-12-18T15:33:22;-3.30;99.90
41944;DHT22;27636;52.610;13.244;2022-12-18T15:38:26;-3.20;99.90
41944;DHT22;27636;52.610;13.244;2022-12-18T15:43:30;-3.20;99.90
41944;DHT22;27636;52.610;13.244;2022-12-18T15:48:42;-3.30;99.90
41944;DHT22;27636;52.610;13.244;2022-12-18T15:53:46;-3.40;99.90
41944;DHT22;27636;52.610;13.244;2022-12-18T15:58:50;-3.60;99.90
41944;DHT22;27636;52.610;13.244;2022-12-18T16:03:55;-3.50;99.90
41944;DHT22;27636;52.610;13.244;2022-12-18T16:08:58;-3.50;99.90
41944;DHT22;27636;52.610;13.244;2022-12-18T16:14:01;-3.60;99.90
41944;DHT22;27636;52.610;13.244;2022-12-18T16:19:06;-3.60;99.90
41944;DHT22;27636;52.610;13.244;2022-12-18T16:24:13;-3.50;99.90
41944;DHT22;27636;52.610;13.244;2022-12-18T16:29:18;-3.50;99.90
41944;DHT22;27636;52.610;13.244;2022-12-18T16:34:24;-3.60;99.90
41944;DHT22;27636;52.610;13.244;2022-12-18T16:39:32;-3.70;99.90
41944;DHT22;27636;52.610;13.244;2022-12-18T16:44:37;-3.60;99.90
41944;DHT22;27636;52.610;13.244;2022-12-18T16:49:41;-3.60;99.90
41944;DHT22;27636;52.610;13.244;2022-12-18T16:54:45;-3.60;99.90
41944;DHT22;27636;52.610;13.244;2022-12-18T16:59:48;-3.60;99.90
41944;DHT22;27636;52.610;13.244;2022-12-18T17:04:54;-3.70;99.90
41944;DHT22;27636;52.610;13.244;2022-12-18T17:09:58;-3.70;99.90
41944;DHT22;27636;52.610;13.244;2022-12-18T17:15:01;-3.90;99.90
41944;DHT22;27636;52.610;13.244;2022-12-18T17:20:07;-4.10;99.90
41944;DHT22;27636;52.610;13.244;2022-12-18T17:25:11;-4.20;99.90
41944;DHT22;27636;52.610;13.244;2022-12-18T17:30:14;-4.20;99.90
41944;DHT22;27636;52.610;13.244;2022-12-18T17:35:18;-4.30;99.90
41944;DHT22;27636;52.610;13.244;2022-12-18T17:40:22;-4.30;99.90
41944;DHT22;27636;52.610;13.244;2022-12-18T17:45:26;-4.20;99.90
41944;DHT22;27636;52.610;13.244;2022-12-18T17:50:31;-4.20;99.90
41944;DHT22;27636;52.610;13.244;2022-12-18T17:55:34;-4.20;99.90
41944;DHT22;27636;52.610;13.244;2022-12-18T18:00:38;-4.20;99.90
41944;DHT22;27636;52.610;13.244;2022-12-18T18:05:42;-4.20;99.90
41944;DHT22;27636;52.610;13.244;2022-12-18T18:10:46;-4.20;99.90
41944;DHT22;27636;52.610;13.244;2022-12-18T18:15:54;-4.20;99.90
41944;DHT22;27636;52.610;13.244;2022-12-18T18:21:03;-4.20;99.90
41944;DHT22;27636;52.610;13.244;2022-12-18T18:26:08;-4.30;99.90
41944;DHT22;27636;52.610;13.244;2022-12-18T18:31:14;-4.30;99.90
41944;DHT22;27636;52.610;13.244;2022-12-18T18:36:19;-4.20;99.90
41944;DHT22;27636;52.610;13.244;2022-12-18T18:41:22;-4.10;99.90
41944;DHT22;27636;52.610;13.244;2022-12-18T18:46:26;-4.20;99.90
41944;DHT22;27636;52.610;13.244;2022-12-18T18:51:32;-4.30;99.90
41944;DHT22;27636;52.610;13.244;2022-12-18T18:56:37;-4.30;99.90
41944;DHT22;27636;52.610;13.244;2022-12-18T19:02:01;-4.40;99.90
41944;DHT22;27636;52.610;13.244;2022-12-18T19:07:08;-4.30;99.90
41944;DHT22;27636;52.610;13.244;2022-12-18T19:12:12;-4.20;99.90
41944;DHT22;27636;52.610;13.244;2022-12-18T19:17:33;-4.20;99.90
41944;DHT22;27636;52.610;13.244;2022-12-18T19:22:39;-4.20;99.90
41944;DHT22;27636;52.610;13.244;2022-12-18T19:27:44;-4.20;99.90
41944;DHT22;27636;52.610;13.244;2022-12-18T19:32:47;-4.20;99.90
41944;DHT22;27636;52.610;13.244;2022-12-18T19:37:52;-4.10;99.90
41944;DHT22;27636;52.610;13.244;2022-12-18T19:42:55;-4.10;99.90
41944;DHT22;27636;52.610;13.244;2022-12-18T19:47:59;-4.10;99.90
41944;DHT22;27636;52.610;13.244;2022-12-18T19:53:07;-4.10;99.90
41944;DHT22;27636;52.610;13.244;2022-12-18T19:58:12;-4.10;99.90
41944;DHT22;27636;52.610;13.244;2022-12-18T20:03:15;-4.10;99.90
41944;DHT22;27636;52.610;13.244;2022-12-18T20:08:32;-4.30;99.90
41944;DHT22;27636;52.610;13.244;2022-12-18T20:13:38;-4.20;99.90
41944;DHT22;27636;52.610;13.244;2022-12-18T20:18:41;-4.30;99.90
41944;DHT22;27636;52.610;13.244;2022-12-18T20:23:46;-4.20;99.90
41944;DHT22;27636;52.610;13.244;2022-12-18T20:28:50;-4.10;99.90
41944;DHT22;27636;52.610;13.244;2022-12-18T20:33:54;-4.00;99.90
41944;DHT22;27636;52.610;13.244;2022-12-18T20:39:04;-4.10;99.90
41944;DHT22;27636;52.610;13.244;2022-12-18T20:44:12;-4.10;99.90
41944;DHT22;27636;52.610;13.244;2022-12-18T20:49:26;-4.00;99.90
41944;DHT22;27636;52.610;13.244;2022-12-18T20:54:30;-3.90;99.90
41944;DHT22;27636;52.610;13.244;2022-12-18T20:59:33;-4.00;99.90
41944;DHT22;27636;52.610;13.244;2022-12-18T21:04:36;-4.00;99.90
41944;DHT22;27636;52.610;13.244;2022-12-18T21:09:41;-3.90;99.90
41944;DHT22;27636;52.610;13.244;2022-12-18T21:14:44;-4.00;99.90
41944;DHT22;27636;52.610;13.244;2022-12-18T21:19:49;-4.00;99.90
41944;DHT22;27636;52.610;13.244;2022-12-18T21:24:54;-3.90;99.90
41944;DHT22;27636;52.610;13.244;2022-12-18T21:29:57;-3.90;99.90
41944;DHT22;27636;52.610;13.244;2022-12-18T21:35:00;-3.80;99.90
41944;DHT22;27636;52.610;13.244;2022-12-18T21:40:06;-3.80;99.90
41944;DHT22;27636;52.610;13.244;2022-12-18T21:45:10;-4.00;99.90
41944;DHT22;27636;52.610;13.244;2022-12-18T21:50:14;-3.90;99.90
41944;DHT22;27636;52.610;13.244;2022-12-18T21:55:18;-4.00;99.90
41944;DHT22;27636;52.610;13.244;2022-12-18T22:00:21;-3.90;99.90
41944;DHT22;27636;52.610;13.244;2022-12-18T22:05:25;-4.00;99.90
41944;DHT22;27636;52.610;13.244;2022-12-18T22:10:29;-4.00;99.90
41944;DHT22;27636;52.610;13.244;2022-12-18T22:15:32;-3.90;99.90
41944;DHT22;27636;52.610;13.244;2022-12-18T22:20:36;-3.90;99.90
41944;DHT22;27636;52.610;13.244;2022-12-18T22:25:40;-3.80;99.90
41944;DHT22;27636;52.610;13.244;2022-12-18T22:30:43;-3.80;99.90
41944;DHT22;27636;52.610;13.244;2022-12-18T22:35:46;-3.80;99.90
41944;DHT22;27636;52.610;13.244;2022-12-18T22:40:51;-3.70;99.90
41944;DHT22;27636;52.610;13.244;2022-12-18T22:45:54;-3.60;99.90
41944;DHT22;27636;52.610;13.244;2022-12-18T22:50:59;-3.60;99.90
41944;DHT22;27636;52.610;13.244;2022-12-18T22:56:04;-3.50;99.90
41944;DHT22;27636;52.610;13.244;2022-12-18T23:01:17;-3.40;99.90
41944;DHT22;27636;52.610;13.244;2022-12-18T23:06:23;-3.40;99.90
41944;DHT22;27636;52.610;13.244;2022-12-18T23:11:28;-3.50;99.90
41944;DHT22;27636;52.610;13.244;2022-12-18T23:16:31;-3.40;99.90
41944;DHT22;27636;52.610;13.244;2022-12-18T23:21:35;-3.50;99.90
41944;DHT22;27636;52.610;13.244;2022-12-18T23:26:40;-3.50;99.90
41944;DHT22;27636;52.610;13.244;2022-12-18T23:31:43;-3.50;99.90
41944;DHT22;27636;52.610;13.244;2022-12-18T23:36:47;-3.60;99.90
41944;DHT22;27636;52.610;13.244;2022-12-18T23:41:56;-3.60;99.90
41944;DHT22;27636;52.610;13.244;2022-12-18T23:46:59;-3.50;99.90
41944;DHT22;27636;52.610;13.244;2022-12-18T23:52:03;-3.40;99.90
41944;DHT22;27636;52.610;13.244;2022-12-18T23:57:07;-3.40;99.90
